Time;durP1;ratioP1;P1;durP2;ratioP2;P2;SDS_P1;SDS_P2;PMS_P1;PMS_P2;Temp;Humidity;BMP_temperature;BMP_pressure;BME280_temperature;BME280_humidity;BME280_pressure;Samples;Min_cycle;Max_cycle;Signal;HPM_P1;HPM_P2
2023/06/14 00:02:16;;;;;;;;;;;;;;;24.01;63.55;99293.88;5092340;28;20014;-35
2023/06/14 00:04:41;;;;;;;;;;;;;;;24.08;63.32;99283.38;5092494;28;19912;-37
2023/06/14 00:07:09;;;;;;;;;;;;;;;24.18;63.22;99285.88;5092160;28;20286;-35
2023/06/14 00:09:35;;;;;;;;;;;;;;;24.13;62.96;99294.16;5092744;28;19939;-36
2023/06/14 00:12:00;;;;;;;;;;;;;;;24.18;63.18;99285.88;5092622;28;20384;-36
2023/06/14 00:14:26;;;;;;;;;;;;;;;24.32;62.37;99287.78;5093081;28;20006;-36
2023/06/14 00:16:52;;;;;;;;;;;;;;;24.28;62.30;99289.50;5092650;28;19912;-36
2023/06/14 00:19:19;;;;;;;;;;;;;;;23.99;63.51;99280.59;5092528;28;20360;-36
2023/06/14 00:21:45;;;;;;;;;;;;;;;23.78;64.56;99282.91;5092972;28;19912;-36
2023/06/14 00:24:10;;;;;;;;;;;;;;;23.90;64.23;99285.13;5092407;28;20291;-36
2023/06/14 00:26:36;;;;;;;;;;;;;;;23.96;64.10;99283.91;5092517;28;19919;-36
2023/06/14 00:29:01;;;;;;;;;;;;;;;23.66;64.96;99284.47;5092894;28;20331;-36
2023/06/14 00:31:26;;;;;;;;;;;;;;;23.58;65.88;99280.56;5092314;28;20352;-36
2023/06/14 00:33:52;;;;;;;;;;;;;;;23.31;66.94;99281.34;5091977;28;19919;-36
2023/06/14 00:36:17;;;;;;;;;;;;;;;23.45;66.60;99287.56;5092339;28;19920;-36
2023/06/14 00:38:42;;;;;;;;;;;;;;;23.45;66.55;99274.00;5092268;28;19916;-36
2023/06/14 00:41:08;;;;;;;;;;;;;;;23.34;67.19;99275.28;5092330;28;19995;-36
2023/06/14 00:43:34;;;;;;;;;;;;;;;23.56;66.48;99278.13;5092160;28;19916;-36
2023/06/14 00:46:00;;;;;;;;;;;;;;;23.66;66.28;99274.41;5092320;28;19918;-36
2023/06/14 00:48:25;;;;;;;;;;;;;;;23.52;66.83;99271.72;5092165;28;20287;-37
2023/06/14 00:50:52;;;;;;;;;;;;;;;23.33;67.32;99269.06;5091991;28;19912;-36
2023/06/14 00:53:18;;;;;;;;;;;;;;;23.53;66.89;99269.78;5092042;28;19965;-36
2023/06/14 00:55:43;;;;;;;;;;;;;;;23.58;67.05;99261.56;5091883;28;19916;-36
2023/06/14 00:58:10;;;;;;;;;;;;;;;23.30;67.79;99269.66;5091678;28;19919;-36
2023/06/14 01:00:35;;;;;;;;;;;;;;;23.28;68.50;99258.28;5091659;28;20356;-37
2023/06/14 01:03:01;;;;;;;;;;;;;;;23.22;68.89;99262.22;5092319;28;20006;-36
2023/06/14 01:05:26;;;;;;;;;;;;;;;23.20;68.91;99264.44;5091951;28;20225;-36
2023/06/14 01:08:03;;;;;;;;;;;;;;;22.74;70.87;99271.41;5091805;28;19943;-36
2023/06/14 01:10:40;;;;;;;;;;;;;;;23.08;69.75;99258.69;5091801;28;19969;-37
2023/06/14 01:13:08;;;;;;;;;;;;;;;23.09;69.87;99258.34;5091671;28;19947;-37
2023/06/14 01:15:34;;;;;;;;;;;;;;;23.15;69.59;99261.78;5091479;28;19945;-36
2023/06/14 01:18:02;;;;;;;;;;;;;;;23.18;69.50;99253.06;5091078;28;19920;-37
2023/06/14 01:20:29;;;;;;;;;;;;;;;23.11;69.60;99258.88;5091761;28;19912;-37
2023/06/14 01:22:55;;;;;;;;;;;;;;;23.00;69.94;99254.72;5091618;28;20293;-37
2023/06/14 01:25:20;;;;;;;;;;;;;;;23.08;69.98;99258.69;5091007;28;20446;-37
2023/06/14 01:27:48;;;;;;;;;;;;;;;22.99;70.24;99258.53;5091619;28;19926;-37
2023/06/14 01:30:14;;;;;;;;;;;;;;;22.83;70.77;99255.28;5091730;28;20337;-37
2023/06/14 01:32:40;;;;;;;;;;;;;;;22.99;69.70;99253.88;5091222;28;19972;-37
2023/06/14 01:35:05;;;;;;;;;;;;;;;22.85;70.24;99258.47;5091369;28;19912;-36
2023/06/14 01:37:31;;;;;;;;;;;;;;;23.00;69.93;99250.09;5090997;28;20031;-37
2023/06/14 01:39:56;;;;;;;;;;;;;;;23.06;69.67;99255.47;5091271;28;19998;-36
2023/06/14 01:42:23;;;;;;;;;;;;;;;22.99;69.81;99256.59;5091128;28;19955;-36
2023/06/14 01:44:49;;;;;;;;;;;;;;;22.67;71.54;99253.91;5091271;28;20353;-36
2023/06/14 01:47:14;;;;;;;;;;;;;;;22.78;71.36;99249.91;5091320;28;19919;-36
2023/06/14 01:49:40;;;;;;;;;;;;;;;22.96;70.58;99254.50;5091083;28;19912;-36
2023/06/14 01:52:06;;;;;;;;;;;;;;;23.05;70.11;99253.84;5091041;28;19927;-36
2023/06/14 01:54:31;;;;;;;;;;;;;;;23.16;69.25;99252.56;5091500;28;19952;-36
2023/06/14 01:56:57;;;;;;;;;;;;;;;23.38;68.73;99257.31;5091499;28;20422;-36
2023/06/14 01:59:22;;;;;;;;;;;;;;;23.51;68.23;99253.78;5091010;28;19912;-36
2023/06/14 02:01:47;;;;;;;;;;;;;;;23.60;67.68;99254.69;5091017;28;20347;-36
2023/06/14 02:04:12;;;;;;;;;;;;;;;23.69;67.23;99257.53;5091368;28;19919;-36
2023/06/14 02:06:38;;;;;;;;;;;;;;;23.67;67.70;99258.94;5090892;28;20330;-36
2023/06/14 02:09:03;;;;;;;;;;;;;;;23.58;67.64;99250.69;5090714;28;20340;-36
2023/06/14 02:11:29;;;;;;;;;;;;;;;23.60;67.61;99259.34;5091047;28;20084;-36
2023/06/14 02:13:55;;;;;;;;;;;;;;;23.73;67.02;99265.88;5091064;28;19912;-36
2023/06/14 02:16:20;;;;;;;;;;;;;;;23.74;67.01;99262.88;5091206;28;20261;-37
2023/06/14 02:18:45;;;;;;;;;;;;;;;23.55;66.92;99259.44;5090924;28;19919;-37
2023/06/14 02:21:10;;;;;;;;;;;;;;;23.34;66.67;99265.25;5091455;28;19919;-37
2023/06/14 02:23:36;;;;;;;;;;;;;;;23.14;67.20;99260.19;5091130;28;19912;-37
2023/06/14 02:26:02;;;;;;;;;;;;;;;22.63;69.43;99261.81;5091096;28;19912;-37
2023/06/14 02:28:28;;;;;;;;;;;;;;;22.91;68.63;99251.88;5091197;28;19935;-36
2023/06/14 02:30:53;;;;;;;;;;;;;;;22.91;68.85;99256.50;5093524;28;20407;-37
2023/06/14 02:33:18;;;;;;;;;;;;;;;23.02;68.21;99261.44;5094220;28;19920;-37
2023/06/14 02:35:43;;;;;;;;;;;;;;;23.05;67.94;99262.78;5094746;28;19924;-38
2023/06/14 02:38:09;;;;;;;;;;;;;;;23.26;67.33;99265.94;5094848;28;19965;-36
2023/06/14 02:40:34;;;;;;;;;;;;;;;23.36;66.91;99263.06;5094582;28;19927;-36
2023/06/14 02:43:00;;;;;;;;;;;;;;;23.33;66.73;99265.56;5094643;28;19913;-37
2023/06/14 02:45:25;;;;;;;;;;;;;;;22.77;67.75;99272.69;5094776;28;19954;-36
2023/06/14 02:47:51;;;;;;;;;;;;;;;22.88;67.92;99268.72;5094977;28;20362;-37
2023/06/14 02:50:16;;;;;;;;;;;;;;;22.97;67.75;99269.66;5094759;28;20277;-36
2023/06/14 02:52:44;;;;;;;;;;;;;;;22.53;70.20;99279.03;5094451;28;20367;-37
2023/06/14 02:55:09;;;;;;;;;;;;;;;22.26;70.92;99279.72;5094115;28;19962;-36
2023/06/14 02:57:35;;;;;;;;;;;;;;;22.27;71.64;99277.78;5093107;28;19916;-36
2023/06/14 03:00:00;;;;;;;;;;;;;;;22.33;71.80;99274.75;5094022;28;19942;-37
2023/06/14 03:02:25;;;;;;;;;;;;;;;21.98;72.54;99282.19;5094230;28;20363;-36
2023/06/14 03:04:51;;;;;;;;;;;;;;;22.51;70.87;99281.25;5094032;28;20388;-36
2023/06/14 03:07:19;;;;;;;;;;;;;;;22.78;69.50;99280.56;5094391;28;19916;-36
2023/06/14 03:09:44;;;;;;;;;;;;;;;22.90;68.58;99287.44;5094095;28;20390;-36
2023/06/14 03:12:11;;;;;;;;;;;;;;;23.06;67.93;99283.41;5094173;28;19916;-36
2023/06/14 03:14:36;;;;;;;;;;;;;;;23.19;67.41;99296.19;5094142;28;19995;-36
2023/06/14 03:17:03;;;;;;;;;;;;;;;23.03;67.63;99297.53;5094014;28;20065;-36
2023/06/14 03:19:29;;;;;;;;;;;;;;;22.94;67.90;99300.13;5094120;28;19912;-36
2023/06/14 03:21:57;;;;;;;;;;;;;;;22.99;67.60;99300.00;5094449;28;19922;-36
2023/06/14 03:24:23;;;;;;;;;;;;;;;23.20;67.34;99297.78;5093873;28;19919;-36
2023/06/14 03:26:48;;;;;;;;;;;;;;;23.28;66.82;99296.28;5093747;28;20406;-36
2023/06/14 03:29:14;;;;;;;;;;;;;;;23.28;66.18;99296.28;5093947;28;19920;-36
2023/06/14 03:31:55;;;;;;;;;;;;;;;23.32;66.13;99300.06;5093437;28;19967;-36
2023/06/14 03:34:20;;;;;;;;;;;;;;;23.38;65.70;99306.16;5093773;28;19954;-36
2023/06/14 03:36:46;;;;;;;;;;;;;;;23.39;65.21;99305.88;5093823;28;19944;-36
2023/06/14 03:39:11;;;;;;;;;;;;;;;23.47;64.90;99319.88;5093080;28;20029;-36
2023/06/14 03:41:36;;;;;;;;;;;;;;;23.50;64.67;99314.66;5092362;28;19939;-36
2023/06/14 03:44:02;;;;;;;;;;;;;;;23.34;65.29;99318.72;5093312;28;19912;-37
2023/06/14 03:46:27;;;;;;;;;;;;;;;23.23;65.92;99324.34;5093443;28;19912;-36
2023/06/14 03:48:52;;;;;;;;;;;;;;;23.19;66.07;99317.09;5093431;28;20252;-37
2023/06/14 03:51:18;;;;;;;;;;;;;;;23.26;66.13;99322.13;5093013;28;19919;-36
2023/06/14 03:53:43;;;;;;;;;;;;;;;23.51;64.37;99331.72;5093143;28;20329;-36
2023/06/14 03:56:09;;;;;;;;;;;;;;;23.50;64.47;99338.28;5093584;28;20014;-37
2023/06/14 03:58:34;;;;;;;;;;;;;;;23.54;64.18;99333.88;5092665;28;19916;-36
2023/06/14 04:01:00;;;;;;;;;;;;;;;23.51;64.70;99337.16;5092780;28;19944;-36
2023/06/14 04:03:29;;;;;;;;;;;;;;;23.13;65.89;99337.28;5093061;28;20371;-36
2023/06/14 04:05:56;;;;;;;;;;;;;;;23.03;66.81;99333.63;5092653;28;19922;-36
2023/06/14 04:08:22;;;;;;;;;;;;;;;23.23;66.01;99343.34;5093002;28;19977;-36
2023/06/14 04:10:47;;;;;;;;;;;;;;;23.42;64.20;99337.88;5093198;28;20362;-36
2023/06/14 04:13:13;;;;;;;;;;;;;;;22.96;64.81;99344.03;5092698;28;19923;-35
2023/06/14 04:15:41;;;;;;;;;;;;;;;22.46;66.48;99346.38;5092870;28;20027;-36
2023/06/14 04:18:07;;;;;;;;;;;;;;;22.06;67.61;99341.13;5092936;28;19923;-37
2023/06/14 04:20:33;;;;;;;;;;;;;;;22.37;67.62;99351.66;5092650;28;19912;-35
2023/06/14 04:23:12;;;;;;;;;;;;;;;22.29;68.02;99352.28;5092832;28;19919;-36
2023/06/14 04:25:37;;;;;;;;;;;;;;;22.65;67.32;99347.19;5092505;28;20376;-36
2023/06/14 04:28:03;;;;;;;;;;;;;;;22.91;67.19;99346.81;5092904;28;19913;-37
2023/06/14 04:30:31;;;;;;;;;;;;;;;23.27;65.82;99350.91;5092373;28;19916;-36
2023/06/14 04:32:56;;;;;;;;;;;;;;;23.53;64.73;99351.25;5092210;28;19930;-36
2023/06/14 04:35:23;;;;;;;;;;;;;;;23.71;64.21;99350.38;5092481;28;20291;-37
2023/06/14 04:37:49;;;;;;;;;;;;;;;23.95;63.38;99343.97;5092346;28;19954;-37
2023/06/14 04:40:14;;;;;;;;;;;;;;;24.11;62.61;99350.72;5092463;28;19951;-35
2023/06/14 04:42:40;;;;;;;;;;;;;;;24.26;62.09;99355.03;5092512;28;20037;-36
2023/06/14 04:45:06;;;;;;;;;;;;;;;24.40;61.43;99355.03;5091317;28;19912;-36
2023/06/14 04:47:32;;;;;;;;;;;;;;;24.53;61.24;99356.94;5091717;28;19919;-36
2023/06/14 04:49:57;;;;;;;;;;;;;;;24.40;60.73;99352.28;5090889;28;19916;-37
2023/06/14 04:52:26;;;;;;;;;;;;;;;24.25;61.15;99355.34;5090977;28;19916;-37
2023/06/14 04:54:52;;;;;;;;;;;;;;;24.55;60.96;99359.34;5091454;28;19912;-36
2023/06/14 04:57:17;;;;;;;;;;;;;;;24.72;60.23;99364.94;5091602;28;19912;-41
2023/06/14 04:59:43;;;;;;;;;;;;;;;24.88;59.23;99362.66;5091308;28;20306;-42
2023/06/14 05:02:10;;;;;;;;;;;;;;;24.99;58.60;99360.53;5091650;28;19908;-41
2023/06/14 05:04:39;;;;;;;;;;;;;;;25.14;58.64;99362.06;5091056;28;19912;-41
2023/06/14 05:07:06;;;;;;;;;;;;;;;25.20;58.61;99370.94;5090044;28;19916;-41
2023/06/14 05:09:31;;;;;;;;;;;;;;;25.26;59.26;99372.44;5094700;28;19961;-42
2023/06/14 05:11:58;;;;;;;;;;;;;;;25.28;59.46;99372.94;5109761;27;19963;-42
2023/06/14 05:14:24;;;;;;;;;;;;;;;25.47;58.48;99370.00;5091447;28;19933;-42
2023/06/14 05:16:50;;;;;;;;;;;;;;;25.57;58.62;99372.47;5086747;28;19986;-43
2023/06/14 05:19:17;;;;;;;;;;;;;;;25.70;58.19;99370.75;5088770;28;19943;-41
2023/06/14 05:21:43;;;;;;;;;;;;;;;25.72;58.13;99376.69;5090808;28;20017;-36
2023/06/14 05:24:09;;;;;;;;;;;;;;;25.84;57.79;99374.19;5089972;28;20534;-37
2023/06/14 05:26:35;;;;;;;;;;;;;;;25.89;57.57;99382.25;5090035;28;20355;-36
2023/06/14 05:29:01;;;;;;;;;;;;;;;25.54;58.70;99392.94;5090593;28;19919;-37
2023/06/14 05:31:27;;;;;;;;;;;;;;;25.82;58.38;99386.53;5089501;28;19924;-36
2023/06/14 05:33:53;;;;;;;;;;;;;;;25.81;58.20;99393.09;5090465;28;20030;-36
2023/06/14 05:36:24;;;;;;;;;;;;;;;26.08;57.71;99390.22;5089328;28;20408;-36
2023/06/14 05:38:50;;;;;;;;;;;;;;;26.29;56.77;99395.88;5087633;28;19920;-36
2023/06/14 05:41:15;;;;;;;;;;;;;;;26.29;56.83;99400.53;5088159;28;19919;-36
2023/06/14 05:43:41;;;;;;;;;;;;;;;26.43;56.46;99401.22;5089378;28;19994;-36
2023/06/14 05:46:06;;;;;;;;;;;;;;;26.58;56.14;99399.13;5088966;28;19916;-35
2023/06/14 05:48:31;;;;;;;;;;;;;;;26.75;55.55;99407.41;5089705;28;19912;-35
2023/06/14 05:50:57;;;;;;;;;;;;;;;26.81;55.24;99410.78;5089609;28;19919;-43
2023/06/14 05:53:22;;;;;;;;;;;;;;;26.85;55.02;99412.53;5089702;28;19920;-43
2023/06/14 05:55:50;;;;;;;;;;;;;;;27.04;54.31;99420.41;5090352;28;19935;-37
2023/06/14 05:58:15;;;;;;;;;;;;;;;27.24;54.00;99415.41;5089216;28;20350;-41
2023/06/14 06:00:40;;;;;;;;;;;;;;;27.08;54.59;99413.19;5084444;28;19917;-35
2023/06/14 06:03:08;;;;;;;;;;;;;;;26.91;54.56;99418.66;5089898;28;19919;-36
2023/06/14 06:05:33;;;;;;;;;;;;;;;26.98;54.08;99416.25;5092163;28;19912;-36
2023/06/14 06:07:58;;;;;;;;;;;;;;;26.80;54.25;99415.41;5094275;28;20228;-36
2023/06/14 06:10:24;;;;;;;;;;;;;;;26.59;55.03;99415.22;5094296;28;19916;-36
2023/06/14 06:12:51;;;;;;;;;;;;;;;26.95;54.58;99408.69;5094153;28;19938;-37
2023/06/14 06:15:17;;;;;;;;;;;;;;;27.24;53.50;99410.75;5093927;28;19912;-37
2023/06/14 06:17:42;;;;;;;;;;;;;;;27.55;53.05;99411.72;5094215;28;19935;-36
2023/06/14 06:20:08;;;;;;;;;;;;;;;27.84;52.33;99416.47;5094204;28;19912;-36
2023/06/14 06:22:33;;;;;;;;;;;;;;;28.11;51.76;99420.72;5094219;28;20019;-36
2023/06/14 06:24:59;;;;;;;;;;;;;;;27.83;51.62;99409.38;5094074;28;19919;-36
2023/06/14 06:27:24;;;;;;;;;;;;;;;28.03;51.78;99416.09;5094024;28;20380;-36
2023/06/14 06:29:49;;;;;;;;;;;;;;;28.22;51.00;99408.28;5094342;28;19970;-35
2023/06/14 06:32:15;;;;;;;;;;;;;;;28.23;51.41;99418.09;5093693;28;20411;-36
2023/06/14 06:34:40;;;;;;;;;;;;;;;28.06;50.36;99419.00;5091492;28;20232;-37
2023/06/14 06:37:06;;;;;;;;;;;;;;;28.07;50.14;99417.84;5093563;28;20390;-36
2023/06/14 06:39:31;;;;;;;;;;;;;;;28.57;49.96;99424.53;5094033;28;19960;-36
2023/06/14 06:41:56;;;;;;;;;;;;;;;29.20;48.48;99421.81;5094024;28;19923;-35
2023/06/14 06:44:22;;;;;;;;;;;;;;;29.49;47.45;99422.06;5093860;28;20351;-36
2023/06/14 06:46:47;;;;;;;;;;;;;;;29.88;46.72;99422.63;5094150;28;19952;-36
2023/06/14 06:49:12;;;;;;;;;;;;;;;29.28;47.39;99430.31;5094229;28;20295;-36
2023/06/14 06:51:41;;;;;;;;;;;;;;;30.04;46.75;99422.75;5093669;28;19920;-36
2023/06/14 06:54:08;;;;;;;;;;;;;;;30.33;44.96;99422.56;5093104;28;19912;-36
2023/06/14 06:56:33;;;;;;;;;;;;;;;30.83;44.25;99426.06;5092005;28;19920;-37
2023/06/14 06:58:58;;;;;;;;;;;;;;;30.11;44.68;99421.06;5093588;28;19912;-36
2023/06/14 07:01:24;;;;;;;;;;;;;;;30.54;44.19;99424.38;5093849;28;19923;-36
2023/06/14 07:03:49;;;;;;;;;;;;;;;30.87;43.24;99426.16;5093712;28;19935;-36
2023/06/14 07:06:18;;;;;;;;;;;;;;;30.16;44.54;99423.56;5093784;28;19999;-37
2023/06/14 07:08:44;;;;;;;;;;;;;;;30.68;42.97;99426.78;5093390;28;19923;-36
2023/06/14 07:11:09;;;;;;;;;;;;;;;31.01;42.11;99432.09;5093483;28;19912;-36
2023/06/14 07:13:35;;;;;;;;;;;;;;;30.45;43.62;99426.47;5093693;28;19916;-36
2023/06/14 07:16:00;;;;;;;;;;;;;;;29.88;45.51;99417.94;5092283;28;19912;-37
2023/06/14 07:18:26;;;;;;;;;;;;;;;30.17;45.22;99416.13;5093112;28;20360;-37
2023/06/14 07:20:51;;;;;;;;;;;;;;;30.36;44.62;99418.34;5093640;28;19923;-37
2023/06/14 07:23:17;;;;;;;;;;;;;;;29.65;45.48;99424.97;5093386;28;19912;-36
2023/06/14 07:25:42;;;;;;;;;;;;;;;28.78;47.96;99424.56;5093179;28;19919;-36
2023/06/14 07:28:07;;;;;;;;;;;;;;;28.43;48.30;99413.81;5092585;28;20022;-35
2023/06/14 07:30:33;;;;;;;;;;;;;;;28.55;48.14;99415.84;5093252;28;19912;-35
2023/06/14 07:32:58;;;;;;;;;;;;;;;28.34;48.86;99415.00;5092992;28;19940;-36
2023/06/14 07:35:23;;;;;;;;;;;;;;;28.27;49.03;99412.75;5092910;28;20364;-36
2023/06/14 07:37:49;;;;;;;;;;;;;;;27.74;50.29;99420.34;5092974;28;19912;-37
2023/06/14 07:40:15;;;;;;;;;;;;;;;27.52;51.30;99417.84;5093502;28;19966;-36
2023/06/14 07:42:40;;;;;;;;;;;;;;;28.18;49.75;99418.28;5093175;28;19919;-36
2023/06/14 07:45:06;;;;;;;;;;;;;;;27.97;50.80;99418.22;5093383;28;19916;-36
2023/06/14 07:47:31;;;;;;;;;;;;;;;27.94;50.58;99418.06;5092926;28;20364;-37
2023/06/14 07:49:57;;;;;;;;;;;;;;;27.31;50.72;99426.69;5092790;28;19922;-37
2023/06/14 07:52:22;;;;;;;;;;;;;;;26.87;52.16;99417.69;5092820;28;19916;-37
2023/06/14 07:54:47;;;;;;;;;;;;;;;26.89;52.35;99415.44;5092830;28;20352;-36
2023/06/14 07:57:13;;;;;;;;;;;;;;;28.15;49.55;99418.13;5092944;28;20346;-37
2023/06/14 07:59:38;;;;;;;;;;;;;;;28.34;48.23;99409.53;5092680;28;20395;-37
2023/06/14 08:02:03;;;;;;;;;;;;;;;27.60;49.60;99414.28;5092602;28;19919;-36
2023/06/14 08:04:29;;;;;;;;;;;;;;;28.34;47.66;99412.25;5092336;28;19916;-36
2023/06/14 08:06:54;;;;;;;;;;;;;;;27.85;48.70;99418.06;5092386;28;19916;-36
2023/06/14 08:09:20;;;;;;;;;;;;;;;27.66;48.27;99418.44;5088713;28;19912;-36
2023/06/14 08:11:45;;;;;;;;;;;;;;;28.15;47.58;99418.94;5089717;28;19916;-36
2023/06/14 08:14:10;;;;;;;;;;;;;;;29.07;46.64;99419.34;5085649;28;19916;-36
2023/06/14 08:16:36;;;;;;;;;;;;;;;29.84;44.58;99417.03;5091866;28;19912;-37
2023/06/14 08:19:01;;;;;;;;;;;;;;;29.94;43.00;99419.31;5092093;28;20272;-36
2023/06/14 08:21:28;;;;;;;;;;;;;;;30.33;42.21;99421.75;5091815;28;20394;-36
2023/06/14 08:23:54;;;;;;;;;;;;;;;30.10;42.44;99432.34;5091664;28;20044;-36
2023/06/14 08:26:20;;;;;;;;;;;;;;;30.79;42.20;99436.13;5091592;28;20425;-36
2023/06/14 08:28:46;;;;;;;;;;;;;;;30.89;40.75;99437.59;5091387;28;19999;-36
2023/06/14 08:31:11;;;;;;;;;;;;;;;31.52;40.23;99440.59;5090097;28;19916;-37
2023/06/14 08:33:36;;;;;;;;;;;;;;;32.17;39.59;99436.00;5091575;28;20380;-36
2023/06/14 08:36:02;;;;;;;;;;;;;;;32.36;37.82;99438.81;5092004;28;19912;-37
2023/06/14 08:38:27;;;;;;;;;;;;;;;32.32;38.63;99435.97;5091874;28;19912;-38
2023/06/14 08:40:52;;;;;;;;;;;;;;;32.51;37.56;99445.44;5091809;28;19912;-37
2023/06/14 08:43:18;;;;;;;;;;;;;;;31.67;38.35;99444.53;5091033;28;20371;-37
2023/06/14 08:45:45;;;;;;;;;;;;;;;31.82;38.78;99445.72;5090769;28;19954;-37
2023/06/14 08:48:11;;;;;;;;;;;;;;;32.03;38.15;99447.44;5091908;28;20288;-36
2023/06/14 08:50:39;;;;;;;;;;;;;;;32.35;38.46;99451.00;5091398;28;19919;-35
2023/06/14 08:53:10;;;;;;;;;;;;;;;33.09;36.04;99444.75;5087222;28;19963;-35
2023/06/14 08:55:38;;;;;;;;;;;;;;;32.14;37.58;99449.31;5089412;28;20010;-36
2023/06/14 08:58:04;;;;;;;;;;;;;;;30.30;41.67;99439.69;5091392;28;20303;-36
2023/06/14 09:00:30;;;;;;;;;;;;;;;30.59;42.20;99440.63;5091099;28;19912;-37
2023/06/14 09:02:57;;;;;;;;;;;;;;;30.92;40.62;99436.91;5089252;28;19916;-36
2023/06/14 09:05:23;;;;;;;;;;;;;;;32.06;38.07;99443.97;5089215;28;19931;-36
2023/06/14 09:07:50;;;;;;;;;;;;;;;32.01;38.32;99442.28;5089708;28;19918;-36
2023/06/14 09:10:15;;;;;;;;;;;;;;;32.26;37.60;99442.91;5091605;28;19970;-37
2023/06/14 09:12:41;;;;;;;;;;;;;;;32.16;37.37;99432.44;5091604;28;19955;-36
2023/06/14 09:15:08;;;;;;;;;;;;;;;32.37;36.59;99434.91;5091258;28;19919;-37
2023/06/14 09:17:35;;;;;;;;;;;;;;;32.11;37.47;99429.97;5091365;28;20372;-36
2023/06/14 09:20:00;;;;;;;;;;;;;;;32.38;37.17;99424.69;5090941;28;19912;-36
2023/06/14 09:22:29;;;;;;;;;;;;;;;32.67;37.44;99426.97;5090592;28;19919;-35
2023/06/14 09:24:54;;;;;;;;;;;;;;;33.15;37.53;99420.47;5090301;28;19919;-36
2023/06/14 09:27:19;;;;;;;;;;;;;;;33.61;35.55;99423.34;5088957;28;19912;-37
2023/06/14 09:29:45;;;;;;;;;;;;;;;33.73;35.54;99420.44;5089563;28;20388;-36
2023/06/14 09:32:10;;;;;;;;;;;;;;;33.09;35.74;99414.44;5089809;28;19943;-36
2023/06/14 09:34:36;;;;;;;;;;;;;;;33.10;35.54;99403.09;5089822;28;20347;-38
2023/06/14 09:37:01;;;;;;;;;;;;;;;32.56;36.37;99420.41;5090108;28;20028;-36
2023/06/14 09:39:27;;;;;;;;;;;;;;;32.19;37.61;99419.91;5088899;28;19954;-36
2023/06/14 09:41:52;;;;;;;;;;;;;;;32.63;36.49;99409.53;5089506;28;19913;-36
2023/06/14 09:44:18;;;;;;;;;;;;;;;32.84;36.01;99411.16;5089758;28;19912;-35
2023/06/14 09:46:44;;;;;;;;;;;;;;;33.05;35.58;99408.06;5089563;28;19967;-36
2023/06/14 09:49:09;;;;;;;;;;;;;;;33.24;36.23;99410.03;5089754;28;19943;-35
2023/06/14 09:51:36;;;;;;;;;;;;;;;33.15;36.93;99406.69;5090915;28;19912;-37
2023/06/14 09:54:04;;;;;;;;;;;;;;;33.65;35.79;99410.44;5090520;28;19912;-37
2023/06/14 09:56:30;;;;;;;;;;;;;;;33.81;34.24;99410.31;5090869;28;19912;-36
2023/06/14 09:58:56;;;;;;;;;;;;;;;33.34;34.36;99408.63;5090820;28;19920;-36
2023/06/14 10:01:28;;;;;;;;;;;;;;;32.80;35.43;99408.34;5090571;28;19919;-36
2023/06/14 10:04:04;;;;;;;;;;;;;;;32.91;36.09;99397.56;5090475;28;19934;-37
2023/06/14 10:06:30;;;;;;;;;;;;;;;33.02;35.49;99393.06;5090528;28;20331;-36
2023/06/14 10:08:59;;;;;;;;;;;;;;;32.69;35.95;99407.31;5090442;28;20007;-36
2023/06/14 10:11:28;;;;;;;;;;;;;;;32.00;37.05;99398.59;5090576;28;19970;-38
2023/06/14 10:13:54;;;;;;;;;;;;;;;32.03;36.08;99395.97;5090454;28;19988;-35
2023/06/14 10:16:38;;;;;;;;;;;;;;;31.74;37.43;99399.94;5090117;28;19919;-35
2023/06/14 10:19:19;;;;;;;;;;;;;;;31.15;41.11;99396.78;5090289;28;19912;-36
2023/06/14 10:22:05;;;;;;;;;;;;;;;31.36;42.43;99401.28;5090234;28;19998;-36
2023/06/14 10:24:41;;;;;;;;;;;;;;;31.23;41.92;99395.03;5089817;28;19916;-37
2023/06/14 10:27:10;;;;;;;;;;;;;;;30.98;43.10;99397.88;5090731;28;19916;-37
2023/06/14 10:29:58;;;;;;;;;;;;;;;31.34;41.52;99390.63;5090225;28;20027;-36
2023/06/14 10:32:24;;;;;;;;;;;;;;;32.30;39.57;99387.94;5089975;28;19967;-36
2023/06/14 10:34:57;;;;;;;;;;;;;;;31.93;39.66;99386.28;5090452;28;19920;-36
2023/06/14 10:37:22;;;;;;;;;;;;;;;31.70;39.49;99386.09;5090060;28;19912;-36
2023/06/14 10:39:48;;;;;;;;;;;;;;;31.90;38.36;99392.47;5089831;28;20003;-36
2023/06/14 10:42:14;;;;;;;;;;;;;;;32.06;38.05;99391.69;5089038;28;20314;-36
2023/06/14 10:44:52;;;;;;;;;;;;;;;32.17;38.24;99383.69;5090094;28;20383;-36
2023/06/14 10:47:17;;;;;;;;;;;;;;;32.35;38.62;99384.91;5090311;28;20353;-37
2023/06/14 10:49:44;;;;;;;;;;;;;;;32.24;39.02;99378.38;5090032;28;19912;-37
2023/06/14 10:52:19;;;;;;;;;;;;;;;32.63;38.88;99381.22;5092777;28;20392;-36
2023/06/14 10:55:01;;;;;;;;;;;;;;;32.69;38.57;99372.31;5093775;28;20399;-43
2023/06/14 10:57:26;;;;;;;;;;;;;;;32.51;38.96;99363.63;5093659;28;19912;-42
2023/06/14 10:59:51;;;;;;;;;;;;;;;33.17;37.75;99374.06;5093683;28;19969;-42
2023/06/14 11:02:19;;;;;;;;;;;;;;;33.73;36.43;99373.53;5093518;28;19915;-42
2023/06/14 11:04:48;;;;;;;;;;;;;;;33.35;37.13;99366.94;5093593;28;19912;-41
2023/06/14 11:07:32;;;;;;;;;;;;;;;33.87;36.29;99365.50;5093403;28;20300;-43
2023/06/14 11:10:10;;;;;;;;;;;;;;;34.33;35.52;99358.28;5093547;28;19962;-42
2023/06/14 11:12:36;;;;;;;;;;;;;;;34.51;34.63;99364.88;5093013;28;19923;-42
2023/06/14 11:15:02;;;;;;;;;;;;;;;34.81;31.23;99362.13;5093178;28;20011;-43
2023/06/14 11:17:28;;;;;;;;;;;;;;;34.55;32.90;99362.16;5093120;28;20433;-40
2023/06/14 11:20:18;;;;;;;;;;;;;;;34.20;32.82;99363.25;5093559;28;19912;-41
2023/06/14 11:22:44;;;;;;;;;;;;;;;33.55;34.18;99361.34;5093478;28;19923;-42
2023/06/14 11:25:10;;;;;;;;;;;;;;;32.71;35.68;99361.75;5092994;28;19913;-42
2023/06/14 11:27:35;;;;;;;;;;;;;;;33.07;34.80;99362.47;5093152;28;19959;-41
2023/06/14 11:30:00;;;;;;;;;;;;;;;32.50;36.16;99355.72;5093179;28;20423;-41
2023/06/14 11:32:26;;;;;;;;;;;;;;;33.25;35.23;99351.00;5093085;28;19980;-43
2023/06/14 11:34:51;;;;;;;;;;;;;;;33.28;34.68;99353.00;5093237;28;19912;-42
2023/06/14 11:37:17;;;;;;;;;;;;;;;33.86;34.91;99347.34;5092761;28;20489;-42
2023/06/14 11:39:45;;;;;;;;;;;;;;;33.74;35.30;99350.31;5092955;28;19912;-42
2023/06/14 11:42:16;;;;;;;;;;;;;;;33.07;35.42;99339.59;5092835;28;19919;-42
2023/06/14 11:44:42;;;;;;;;;;;;;;;33.09;37.08;99342.78;5092872;28;19912;-40
2023/06/14 11:47:07;;;;;;;;;;;;;;;32.66;36.84;99336.44;5093073;28;19959;-42
2023/06/14 11:49:36;;;;;;;;;;;;;;;33.47;35.32;99330.09;5092501;28;19922;-43
2023/06/14 11:52:01;;;;;;;;;;;;;;;32.79;36.91;99332.38;5092973;28;20348;-42
2023/06/14 11:54:26;;;;;;;;;;;;;;;32.59;37.10;99330.78;5092969;28;19912;-41
2023/06/14 11:56:52;;;;;;;;;;;;;;;32.39;37.29;99325.22;5092554;28;19912;-42
2023/06/14 11:59:17;;;;;;;;;;;;;;;32.81;36.88;99324.56;5091048;28;19916;-42
2023/06/14 12:01:43;;;;;;;;;;;;;;;32.62;37.41;99322.59;5092561;28;20003;-43
2023/06/14 12:04:08;;;;;;;;;;;;;;;31.15;38.78;99322.59;5091891;28;19969;-43
2023/06/14 12:06:36;;;;;;;;;;;;;;;32.51;37.72;99316.03;5092479;28;19912;-42
2023/06/14 12:09:05;;;;;;;;;;;;;;;32.59;38.19;99330.78;5092488;28;19919;-43
2023/06/14 12:11:33;;;;;;;;;;;;;;;32.82;37.03;99314.31;5092689;28;19920;-43
2023/06/14 12:13:58;;;;;;;;;;;;;;;32.58;37.85;99315.41;5092505;28;19919;-42
2023/06/14 12:16:30;;;;;;;;;;;;;;;31.59;39.01;99323.72;5092645;28;20102;-42
2023/06/14 12:18:56;;;;;;;;;;;;;;;31.98;39.24;99321.13;5092544;28;19916;-42
2023/06/14 12:21:22;;;;;;;;;;;;;;;31.73;38.58;99316.63;5092377;28;19943;-42
2023/06/14 12:23:49;;;;;;;;;;;;;;;31.18;38.98;99319.13;5092245;28;19966;-41
2023/06/14 12:26:15;;;;;;;;;;;;;;;30.37;40.81;99316.47;5092006;28;20025;-42
2023/06/14 12:28:44;;;;;;;;;;;;;;;29.76;42.44;99295.34;5092167;28;19916;-42
2023/06/14 12:31:12;;;;;;;;;;;;;;;30.41;41.47;99289.13;5091833;28;20272;-42
2023/06/14 12:33:37;;;;;;;;;;;;;;;30.33;41.95;99298.28;5091634;28;19923;-41
2023/06/14 12:36:06;;;;;;;;;;;;;;;30.35;41.73;99301.50;5091980;28;19935;-41
2023/06/14 12:38:32;;;;;;;;;;;;;;;30.16;41.81;99291.88;5091782;28;19924;-42
2023/06/14 12:40:57;;;;;;;;;;;;;;;30.25;42.06;99286.25;5091992;28;20350;-42
2023/06/14 12:43:23;;;;;;;;;;;;;;;31.09;41.26;99282.81;5091845;28;19912;-41
2023/06/14 12:45:48;;;;;;;;;;;;;;;30.65;41.42;99279.19;5091738;28;19912;-43